Pagina principală
METAR-TAF:

METAR-TAF

Aeroporturi :

Fort Sill, Oklahoma, Statele Unite ale Americii

Latitudine: 34-36N, longitudine: 098-24W, elevație: 362 m

Observații meteo curente

Raportul a fost făcut în urmă cu 21 de minute, la 22:55 UTC
Vânt 8 kt de la Sud-vest cu rafale de până la 18 kt
Temperatură 35°C
Umiditate 37%
Presiune 1013 hPa
Vizibilitate: 16.1 km
Nori împrăștiați la o înălțime de 7000 picior

METAR: KFSI 222255Z AUTO 22008G18KT 10SM SCT070 35/18 A2990 RMK AO2 SLP114 T03480175 FZRANO $

Ora: 18:16 (23:16 UTC)


TAF: lipsă

Observații și prognoze meteo pentru peste 4.000 de aeroporturi (rapoarte METAR și TAF).

Stațiile disponibile sunt reprezentate pe hartă prin puncte galbene și roșii.

Țineți indicatorul mouse-ului pe punctul dorit pentru a vedea denumirea stației.

Apoi, faceți clic pentru a vedea observațiile și prognozele meteorologice.

Pentru a schimba harta: Pentru mărire, faceți clic pe butoanele verzi cu cruce neagră; pentru micșorare, pe butonul verde cu o liniuță; pentru hărți învecinate, pe săgețile verzi.


METAR-TAF: